Time;durP1;ratioP1;P1;durP2;ratioP2;P2;SDS_P1;SDS_P2;PMS_P1;PMS_P2;Temp;Humidity;BMP_temperature;BMP_pressure;BME280_temperature;BME280_humidity;BME280_pressure;Samples;Min_cycle;Max_cycle;Signal;HPM_P1;HPM_P2
2021/04/19 00:00:25;;;;;;;11.23;8.13;;;;;;;23.00;22.24;96231.53;5046350;28;20962;-58
2021/04/19 00:02:51;;;;;;;12.77;8.43;;;;;;;23.00;22.39;96224.13;5047606;28;20086;-59
2021/04/19 00:05:18;;;;;;;11.68;7.75;;;;;;;23.04;22.39;96230.66;5046635;28;20057;-57
2021/04/19 00:07:43;;;;;;;10.30;7.15;;;;;;;23.06;22.33;96228.41;5046669;28;20484;-57
2021/04/19 00:10:10;;;;;;;10.95;6.78;;;;;;;23.09;22.20;96220.72;5045875;28;20107;-58
2021/04/19 00:12:35;;;;;;;11.30;7.15;;;;;;;23.12;22.10;96225.59;5045067;28;20508;-57
2021/04/19 00:15:28;;;;;;;10.80;7.28;;;;;;;23.13;22.28;96228.00;5046336;28;20049;-58
2021/04/19 00:17:54;;;;;;;11.48;6.75;;;;;;;23.16;22.15;96221.16;5045429;28;20045;-58
2021/04/19 00:20:20;;;;;;;10.70;7.22;;;;;;;23.18;21.93;96218.94;5046373;28;20582;-58
2021/04/19 00:22:45;;;;;;;8.00;5.85;;;;;;;23.19;21.93;96218.59;5045361;28;20133;-58
2021/04/19 00:25:12;;;;;;;8.68;6.50;;;;;;;23.21;22.20;96212.84;5045531;28;20501;-59
2021/04/19 00:27:37;;;;;;;10.38;6.45;;;;;;;23.25;21.91;96219.31;5045846;28;20037;-58
2021/04/19 00:30:04;;;;;;;10.50;6.78;;;;;;;23.28;21.92;96218.72;5044073;28;20048;-58
2021/04/19 00:32:30;;;;;;;8.00;5.45;;;;;;;23.30;21.91;96208.28;5044206;28;20041;-58
2021/04/19 00:34:55;;;;;;;8.98;5.97;;;;;;;23.32;22.06;96213.44;5044755;28;20601;-58
2021/04/19 00:37:21;;;;;;;7.28;5.75;;;;;;;23.34;21.85;96205.72;5045573;28;20175;-58
2021/04/19 00:39:47;;;;;;;7.07;5.60;;;;;;;23.37;22.11;96210.59;5045825;28;20108;-58
2021/04/19 00:42:12;;;;;;;6.93;5.22;;;;;;;23.39;21.75;96213.84;5045632;28;20099;-58
2021/04/19 00:44:38;;;;;;;7.20;5.47;;;;;;;23.41;21.66;96212.41;5046103;28;20589;-58
2021/04/19 00:47:04;;;;;;;7.90;5.60;;;;;;;23.42;21.90;96211.28;5045908;28;20041;-58
2021/04/19 00:49:29;;;;;;;7.18;5.47;;;;;;;23.43;21.90;96204.72;5045172;28;20564;-58
2021/04/19 00:51:55;;;;;;;7.63;5.13;;;;;;;23.46;21.55;96208.75;5044276;28;20045;-58
2021/04/19 00:54:22;;;;;;;6.97;5.38;;;;;;;23.46;21.83;96208.75;5048142;28;20087;-58
2021/04/19 00:56:48;;;;;;;7.13;5.13;;;;;;;23.47;21.60;96202.19;5046313;28;20091;-58
2021/04/19 00:59:14;;;;;;;6.78;5.20;;;;;;;23.49;21.70;96205.44;5045419;28;20140;-58
2021/04/19 01:01:40;;;;;;;7.57;5.00;;;;;;;23.51;21.75;96205.09;5045974;28;20124;-58
2021/04/19 01:04:05;;;;;;;6.80;5.22;;;;;;;23.51;21.75;96202.34;5045532;28;20152;-58
2021/04/19 01:06:31;;;;;;;7.13;4.68;;;;;;;23.52;21.52;96195.78;5043951;28;20105;-58
2021/04/19 01:08:56;;;;;;;6.35;4.85;;;;;;;23.53;21.79;96200.97;5044598;28;20060;-58
2021/04/19 01:11:22;;;;;;;5.47;4.40;;;;;;;23.55;21.87;96200.63;5045423;28;20079;-58
2021/04/19 01:13:48;;;;;;;5.90;4.50;;;;;;;23.54;21.80;96204.50;5045895;28;20400;-58
2021/04/19 01:16:13;;;;;;;5.65;4.28;;;;;;;23.54;21.76;96196.28;5045012;28;20037;-58
2021/04/19 01:18:39;;;;;;;5.53;3.75;;;;;;;23.55;21.63;96203.38;5044496;28;20412;-57
2021/04/19 01:21:05;;;;;;;5.28;3.95;;;;;;;23.55;21.60;96206.09;5042500;28;20080;-58
2021/04/19 01:23:31;;;;;;;5.90;4.10;;;;;;;23.55;21.55;96200.63;5043804;28;20053;-57
2021/04/19 01:25:56;;;;;;;6.32;4.25;;;;;;;23.55;21.67;96201.47;5044755;28;20083;-58
2021/04/19 01:28:22;;;;;;;5.43;3.90;;;;;;;23.57;21.71;96215.63;5045235;28;20068;-58
2021/04/19 01:30:49;;;;;;;4.90;3.55;;;;;;;23.57;21.44;96206.59;5045631;28;20129;-57
2021/04/19 01:33:14;;;;;;;4.78;3.90;;;;;;;23.56;21.53;96211.28;5044850;28;20511;-58
2021/04/19 01:35:40;;;;;;;4.15;3.72;;;;;;;23.58;21.81;96208.22;5043532;28;20063;-58
2021/04/19 01:38:07;;;;;;;5.50;3.92;;;;;;;23.57;21.63;96204.69;5043424;28;20052;-58
2021/04/19 01:40:32;;;;;;;6.03;3.55;;;;;;;23.58;21.59;96205.50;5043324;28;20052;-57
2021/04/19 01:42:58;;;;;;;4.38;3.22;;;;;;;23.56;21.61;96197.59;5045012;28;20535;-58
2021/04/19 01:45:24;;;;;;;4.45;3.38;;;;;;;23.55;21.43;96196.00;5044112;28;20074;-58
2021/04/19 01:47:50;;;;;;;4.80;3.47;;;;;;;23.54;21.66;96197.09;5027529;28;20060;-57
2021/04/19 01:50:18;;;;;;;4.30;3.30;;;;;;;23.54;21.39;96207.22;5044580;28;20059;-57
2021/04/19 01:52:44;;;;;;;5.53;3.70;;;;;;;23.54;21.44;96201.75;5040010;28;20118;-58
2021/04/19 01:55:15;;;;;;;4.85;3.50;;;;;;;23.53;21.50;96208.34;5027105;28;20845;-57
2021/04/19 01:57:42;;;;;;;5.40;3.65;;;;;;;23.53;21.67;96208.34;5024621;28;20397;-58
2021/04/19 02:00:08;;;;;;;5.47;3.85;;;;;;;23.53;21.41;96202.88;5023322;28;20068;-57
2021/04/19 02:02:50;;;;;;;4.25;3.70;;;;;;;23.50;21.65;96201.56;5028713;28;20048;-57
2021/04/19 02:05:30;;;;;;;5.15;3.95;;;;;;;23.51;21.51;96208.66;5027747;28;20072;-57
2021/04/19 02:08:26;;;;;;;5.18;4.43;;;;;;;23.47;21.49;96204.91;5027998;28;20097;-59
2021/04/19 02:11:07;;;;;;;4.97;3.88;;;;;;;23.47;21.57;96199.44;5024153;28;20457;-58
2021/04/19 02:13:42;;;;;;;4.90;4.40;;;;;;;23.46;21.66;96204.09;5027176;28;20081;-58
2021/04/19 02:16:10;;;;;;;6.88;4.50;;;;;;;23.46;21.61;96192.34;5028503;28;20060;-59
2021/04/19 02:18:43;;;;;;;7.28;5.22;;;;;;;23.44;21.79;96194.59;5028229;28;20068;-59
2021/04/19 02:21:11;;;;;;;8.13;5.88;;;;;;;23.44;21.66;96203.59;5027026;28;20045;-58
2021/04/19 02:23:41;;;;;;;7.68;6.00;;;;;;;23.42;21.52;96194.88;5027224;28;20539;-59
2021/04/19 02:26:17;;;;;;;8.00;6.63;;;;;;;23.41;21.58;96193.28;5026919;28;20565;-58
2021/04/19 02:29:38;;;;;;;9.00;7.55;;;;;;;23.39;21.74;96195.50;5028179;28;20077;-58
2021/04/19 02:32:06;;;;;;;9.27;7.32;;;;;;;23.38;21.60;96190.34;5014768;28;20053;-58
2021/04/19 02:34:32;;;;;;;9.73;7.60;;;;;;;23.35;21.44;96194.50;5010715;28;20412;-60
2021/04/19 02:36:58;;;;;;;8.60;7.25;;;;;;;23.35;21.52;96193.69;5010221;28;20061;-59
2021/04/19 02:39:29;;;;;;;10.35;7.60;;;;;;;23.35;21.58;96193.69;5010172;28;20049;-60
2021/04/19 02:41:54;;;;;;;10.63;8.20;;;;;;;23.34;21.63;96192.91;5027926;28;20057;-59
2021/04/19 02:44:20;;;;;;;9.90;7.32;;;;;;;23.32;21.79;96195.13;4994910;28;20061;-58
2021/04/19 02:46:48;;;;;;;11.05;7.90;;;;;;;23.27;21.82;96195.22;5027493;28;20043;-57
2021/04/19 02:49:14;;;;;;;9.23;7.80;;;;;;;23.21;21.71;96197.25;5010280;28;20159;-58
2021/04/19 02:51:41;;;;;;;11.90;7.90;;;;;;;23.20;21.99;96203.03;5010033;28;20129;-58
2021/04/19 02:54:07;;;;;;;9.82;8.00;;;;;;;23.18;21.82;96206.06;5024495;28;20512;-58
2021/04/19 02:56:34;;;;;;;9.50;7.72;;;;;;;23.17;21.72;96196.25;5048266;28;20064;-58
2021/04/19 02:59:01;;;;;;;9.93;8.23;;;;;;;23.19;21.77;96199.47;5046722;28;20080;-58
2021/04/19 03:01:29;;;;;;;9.07;7.18;;;;;;;23.17;22.16;96196.25;5045435;28;20059;-59
2021/04/19 03:03:55;;;;;;;10.00;7.47;;;;;;;23.18;21.72;96194.34;5046171;28;20088;-59
2021/04/19 03:06:21;;;;;;;8.80;7.45;;;;;;;23.17;21.99;96190.78;5047203;28;20040;-58
2021/04/19 03:08:53;;;;;;;9.13;7.35;;;;;;;23.16;21.68;96188.38;5048182;28;20060;-58
2021/04/19 03:11:42;;;;;;;11.05;7.88;;;;;;;23.14;21.85;96191.41;5046432;28;20527;-58
2021/04/19 03:14:08;;;;;;;8.60;7.15;;;;;;;23.15;21.99;96187.53;5046183;28;20442;-58
2021/04/19 03:16:34;;;;;;;8.18;7.07;;;;;;;23.15;21.77;96184.00;5046315;28;20500;-59
2021/04/19 03:19:00;;;;;;;8.05;7.25;;;;;;;23.12;21.99;96179.97;5046084;28;20083;-58
2021/04/19 03:21:25;;;;;;;8.90;7.07;;;;;;;23.12;21.89;96179.16;5041886;28;20915;-59
2021/04/19 03:23:52;;;;;;;7.75;6.95;;;;;;;23.10;21.89;96186.84;5047099;28;20140;-58
2021/04/19 03:26:18;;;;;;;7.43;6.72;;;;;;;23.08;22.01;96181.69;5046415;28;20059;-58
2021/04/19 03:28:47;;;;;;;8.55;7.13;;;;;;;23.08;21.63;96186.34;5047042;28;20053;-58
2021/04/19 03:31:24;;;;;;;8.43;6.90;;;;;;;23.04;21.92;96176.00;5046643;28;20061;-58
2021/04/19 03:33:52;;;;;;;8.98;6.90;;;;;;;23.02;21.70;96180.97;5046711;28;20040;-58
2021/04/19 03:36:18;;;;;;;7.22;6.07;;;;;;;23.03;21.54;96187.25;5046252;28;20408;-58
2021/04/19 03:38:45;;;;;;;6.80;6.10;;;;;;;23.01;21.78;96181.31;5045938;28;20055;-58
2021/04/19 03:41:10;;;;;;;8.45;6.53;;;;;;;22.99;21.99;96178.84;5047657;28;20086;-58
2021/04/19 03:43:36;;;;;;;7.07;6.38;;;;;;;22.98;21.68;96176.41;5045645;28;20057;-58
2021/04/19 03:46:03;;;;;;;7.15;6.22;;;;;;;22.98;21.62;96182.66;5028776;28;20143;-58
2021/04/19 03:48:29;;;;;;;6.68;5.97;;;;;;;22.97;21.92;96177.53;5029850;28;20055;-57
2021/04/19 03:51:01;;;;;;;7.05;6.30;;;;;;;22.95;21.57;96187.94;5028864;28;20049;-59
2021/04/19 03:53:27;;;;;;;6.63;6.03;;;;;;;22.95;21.49;96180.56;5025287;28;20053;-58
2021/04/19 03:55:53;;;;;;;6.65;5.88;;;;;;;22.93;21.73;96177.31;5028817;28;20124;-58
2021/04/19 03:58:18;;;;;;;7.30;6.15;;;;;;;22.92;21.64;96178.41;5026754;28;20085;-58
2021/04/19 04:00:46;;;;;;;5.80;5.20;;;;;;;22.91;21.61;96176.81;5025141;28;20093;-57
2021/04/19 04:03:11;;;;;;;5.90;5.35;;;;;;;22.89;21.80;96168.09;5041826;28;20060;-58
2021/04/19 04:05:37;;;;;;;5.97;5.47;;;;;;;22.87;21.58;96173.06;5025217;28;20080;-58
2021/04/19 04:08:03;;;;;;;6.50;5.38;;;;;;;22.85;21.90;96175.28;5024795;28;20084;-58
2021/04/19 04:10:28;;;;;;;5.63;5.13;;;;;;;22.83;21.58;96181.03;5025432;28;20045;-58
2021/04/19 04:12:54;;;;;;;5.82;5.32;;;;;;;22.83;21.69;96180.25;5025353;28;20076;-58
2021/04/19 04:15:19;;;;;;;5.82;5.10;;;;;;;22.80;21.69;96178.94;5025900;28;20072;-58
2021/04/19 04:17:45;;;;;;;5.38;4.88;;;;;;;22.78;21.72;96174.91;5025222;28;20068;-58
2021/04/19 04:20:11;;;;;;;5.22;4.72;;;;;;;22.77;21.81;96182.25;5041379;28;20164;-58
2021/04/19 04:22:37;;;;;;;5.40;4.90;;;;;;;22.76;21.75;96185.31;5025234;28;20052;-58
2021/04/19 04:25:03;;;;;;;6.28;4.82;;;;;;;22.75;21.57;96184.47;5040866;28;20104;-57
2021/04/19 04:27:29;;;;;;;4.60;4.20;;;;;;;22.72;21.62;96178.84;5041752;28;20045;-57
2021/04/19 04:29:54;;;;;;;4.28;3.88;;;;;;;22.71;21.70;96177.19;5025847;28;20229;-59
2021/04/19 04:32:20;;;;;;;5.40;4.85;;;;;;;22.69;21.87;96182.16;5027418;28;20126;-58
2021/04/19 04:34:46;;;;;;;5.10;4.47;;;;;;;22.66;21.93;96180.84;5025935;28;20100;-58
2021/04/19 04:37:11;;;;;;;5.28;4.78;;;;;;;22.63;21.88;96187.72;5025766;28;20522;-58
2021/04/19 04:39:37;;;;;;;4.68;4.28;;;;;;;22.62;21.73;96182.56;5025968;28;20080;-58
2021/04/19 04:42:04;;;;;;;6.28;4.32;;;;;;;22.60;21.89;96185.59;5025714;28;20072;-58
2021/04/19 04:44:35;;;;;;;4.20;3.80;;;;;;;22.57;21.64;96185.41;5023697;28;20459;-58
2021/04/19 04:47:17;;;;;;;4.10;3.72;;;;;;;22.55;22.07;96193.88;5025070;28;20045;-57
2021/04/19 04:50:02;;;;;;;4.70;4.15;;;;;;;22.51;21.79;96195.59;5024587;28;20056;-58
2021/04/19 04:52:33;;;;;;;3.80;3.50;;;;;;;22.50;21.95;96185.78;5026830;28;20087;-57
2021/04/19 04:54:59;;;;;;;3.90;3.60;;;;;;;22.49;21.92;96186.09;5044171;28;20102;-57
2021/04/19 04:57:24;;;;;;;3.70;3.40;;;;;;;22.47;21.62;96183.66;5044209;28;20040;-58
2021/04/19 04:59:50;;;;;;;4.22;3.80;;;;;;;22.44;21.93;96185.06;5045015;28;20056;-58
2021/04/19 05:02:19;;;;;;;6.88;3.92;;;;;;;22.43;21.77;96182.63;5044153;28;20045;-58
2021/04/19 05:04:45;;;;;;;4.60;4.07;;;;;;;22.41;21.93;96179.41;5043996;28;20045;-58
2021/04/19 05:07:11;;;;;;;3.83;3.47;;;;;;;22.40;21.68;96180.50;5045618;28;20052;-58
2021/04/19 05:09:36;;;;;;;3.83;3.53;;;;;;;22.37;22.07;96181.09;5044162;28;20149;-57
2021/04/19 05:12:03;;;;;;;4.68;3.72;;;;;;;22.35;21.84;96178.66;5043803;28;20047;-58
2021/04/19 05:14:29;;;;;;;4.68;4.03;;;;;;;22.34;21.81;96189.88;5045977;28;20055;-57
2021/04/19 05:16:54;;;;;;;4.18;3.67;;;;;;;22.32;21.57;96182.00;5043139;28;20048;-58
2021/04/19 05:19:20;;;;;;;5.97;4.43;;;;;;;22.28;21.76;96186.44;5045593;28;20072;-57
2021/04/19 05:21:46;;;;;;;4.47;3.72;;;;;;;22.28;21.79;96186.44;5040058;28;20041;-57
2021/04/19 05:24:11;;;;;;;5.05;4.00;;;;;;;22.25;21.71;96193.31;5024152;28;20124;-57
2021/04/19 05:26:37;;;;;;;5.45;3.88;;;;;;;22.22;21.88;96193.06;5025582;28;20520;-57
2021/04/19 05:29:02;;;;;;;4.22;3.83;;;;;;;22.19;21.86;96197.22;5044725;28;20095;-57
2021/04/19 05:31:28;;;;;;;5.30;4.55;;;;;;;22.16;22.05;96188.81;5044913;28;20077;-57
2021/04/19 05:33:57;;;;;;;5.57;4.38;;;;;;;22.12;22.07;96188.59;5026965;28;20073;-57
2021/04/19 05:36:24;;;;;;;5.38;4.35;;;;;;;22.11;22.11;96194.31;5044904;28;20063;-57
2021/04/19 05:38:50;;;;;;;9.57;4.72;;;;;;;22.07;22.38;96196.88;5045980;28;20061;-57
2021/04/19 05:41:16;;;;;;;5.93;4.40;;;;;;;22.03;22.35;96193.91;5027037;28;20138;-58
2021/04/19 05:43:42;;;;;;;8.05;6.65;;;;;;;22.01;22.39;96203.50;5023205;28;20478;-57
2021/04/19 05:46:08;;;;;;;10.15;6.32;;;;;;;21.98;22.54;96196.75;5037189;28;20053;-58
2021/04/19 05:48:33;;;;;;;8.43;5.93;;;;;;;21.96;22.46;96201.69;5007660;28;20051;-57
2021/04/19 05:50:59;;;;;;;11.68;5.78;;;;;;;21.93;22.90;96196.81;5024687;28;20192;-58
2021/04/19 05:53:25;;;;;;;7.80;5.18;;;;;;;21.91;22.95;96209.13;4996225;28;20053;-58
2021/04/19 05:55:55;;;;;;;6.68;4.47;;;;;;;21.89;22.73;96205.88;5023851;28;20326;-57
2021/04/19 05:59:05;;;;;;;6.03;4.55;;;;;;;21.84;22.75;96201.31;5025732;28;20064;-58
2021/04/19 06:01:31;;;;;;;5.82;4.10;;;;;;;21.84;22.49;96209.50;5007401;28;20053;-58
2021/04/19 06:04:12;;;;;;;5.22;4.75;;;;;;;21.80;22.56;96208.47;5007416;28;20077;-58
2021/04/19 06:06:41;;;;;;;5.68;4.25;;;;;;;21.80;22.60;96211.19;5024204;28;20053;-58
2021/04/19 06:09:16;;;;;;;5.03;4.57;;;;;;;21.79;22.73;96215.81;5023334;28;20084;-58
2021/04/19 06:11:44;;;;;;;4.25;3.85;;;;;;;21.78;22.64;96206.03;5024139;28;20364;-58
2021/04/19 06:14:10;;;;;;;5.95;4.95;;;;;;;21.77;22.65;96215.34;5018728;28;20555;-58
2021/04/19 06:16:38;;;;;;;5.13;4.40;;;;;;;21.77;22.56;96217.22;5043498;28;20563;-58
2021/04/19 06:19:05;;;;;;;6.10;4.68;;;;;;;21.76;22.49;96210.16;5040176;28;20049;-58
2021/04/19 06:21:31;;;;;;;7.05;4.97;;;;;;;21.75;22.52;96217.53;5008579;28;20131;-58
2021/04/19 06:23:57;;;;;;;7.03;5.35;;;;;;;21.76;22.49;96215.63;5021564;28;20821;-58
2021/04/19 06:26:23;;;;;;;9.02;6.10;;;;;;;21.75;22.61;96214.81;4990112;28;20045;-59
2021/04/19 06:28:48;;;;;;;9.20;6.25;;;;;;;21.74;22.62;96210.44;5007630;28;20083;-58
2021/04/19 06:31:14;;;;;;;8.43;6.10;;;;;;;21.73;22.61;96211.56;5006366;28;20404;-58
2021/04/19 06:33:40;;;;;;;9.48;7.10;;;;;;;21.74;22.50;96215.91;5007150;28;20072;-57
2021/04/19 06:36:05;;;;;;;10.55;7.20;;;;;;;21.74;22.63;96215.91;5023122;28;20064;-58
2021/04/19 06:38:31;;;;;;;9.90;6.70;;;;;;;21.75;22.60;96219.44;5023254;28;20516;-58
2021/04/19 06:40:56;;;;;;;12.30;8.20;;;;;;;21.74;22.54;96220.56;5024277;28;20152;-58
2021/04/19 06:43:22;;;;;;;10.32;7.15;;;;;;;21.75;22.45;96224.88;5007032;28;20074;-58
2021/04/19 06:45:48;;;;;;;9.38;7.25;;;;;;;21.75;22.56;96227.59;5007532;28;20072;-57
2021/04/19 06:48:14;;;;;;;9.55;6.82;;;;;;;21.73;22.46;96227.94;5025928;28;20168;-58
2021/04/19 06:50:40;;;;;;;10.07;6.97;;;;;;;21.75;22.60;96220.25;5026824;28;20727;-58
2021/04/19 06:53:06;;;;;;;8.85;6.93;;;;;;;21.77;22.48;96228.13;5035194;28;20124;-58
2021/04/19 06:55:31;;;;;;;8.85;6.70;;;;;;;21.78;22.54;96224.31;5034044;28;20068;-58
2021/04/19 06:57:58;;;;;;;9.05;7.40;;;;;;;21.78;22.64;96227.03;5047589;28;20068;-58
2021/04/19 07:00:25;;;;;;;8.23;6.32;;;;;;;21.77;22.59;96228.97;5041674;28;20106;-59
2021/04/19 07:02:52;;;;;;;8.02;6.28;;;;;;;21.77;22.34;96225.41;5037698;28;20057;-58
2021/04/19 07:05:22;;;;;;;7.72;5.85;;;;;;;21.77;22.65;96237.13;5047396;28;20051;-58
2021/04/19 07:07:52;;;;;;;8.73;6.28;;;;;;;21.78;22.60;96237.94;5040642;28;20053;-58
2021/04/19 07:10:18;;;;;;;9.75;6.47;;;;;;;21.76;22.87;96221.88;5010706;28;20045;-58
2021/04/19 07:12:44;;;;;;;7.32;6.20;;;;;;;21.78;22.92;96227.03;5009847;28;20079;-58
2021/04/19 07:15:10;;;;;;;8.27;6.18;;;;;;;21.78;23.02;96218.84;5026691;28;20069;-59
2021/04/19 07:17:35;;;;;;;6.25;5.50;;;;;;;21.79;22.83;96224.00;5044973;28;20083;-57
2021/04/19 07:20:04;;;;;;;7.38;6.05;;;;;;;21.79;22.82;96224.00;5047498;28;20424;-57
2021/04/19 07:22:30;;;;;;;7.60;5.57;;;;;;;21.79;22.62;96223.19;5032552;28;20229;-57
2021/04/19 07:24:55;;;;;;;8.00;6.47;;;;;;;21.80;22.96;96227.56;5009061;28;20143;-58
2021/04/19 07:27:23;;;;;;;7.88;6.28;;;;;;;21.80;23.01;96217.44;5026451;28;20052;-57
2021/04/19 07:29:48;;;;;;;6.57;5.82;;;;;;;21.81;22.93;96221.78;5028460;28;20052;-57
2021/04/19 07:32:15;;;;;;;8.88;5.68;;;;;;;21.84;22.84;96215.75;5027565;28;20072;-57
2021/04/19 07:34:40;;;;;;;7.80;6.45;;;;;;;21.86;23.03;96219.00;5043644;28;20037;-57
2021/04/19 07:37:07;;;;;;;7.15;6.00;;;;;;;21.90;22.89;96212.94;5046459;28;20076;-57
2021/04/19 07:39:37;;;;;;;7.65;6.25;;;;;;;21.92;23.04;96217.00;5046518;28;20045;-58
2021/04/19 07:42:04;;;;;;;10.02;5.53;;;;;;;21.86;23.12;96215.47;5046250;28;20068;-57
2021/04/19 07:44:46;;;;;;;9.10;5.47;;;;;;;21.71;23.03;96216.50;5046494;28;20063;-57
2021/04/19 07:47:19;;;;;;;6.47;5.18;;;;;;;21.65;23.17;96214.97;5046286;28;20059;-57
2021/04/19 07:50:14;;;;;;;6.15;5.32;;;;;;;21.58;23.29;96209.84;5045547;28;20095;-57
2021/04/19 07:52:57;;;;;;;6.40;5.03;;;;;;;21.49;23.33;96210.81;5027686;28;20516;-57
2021/04/19 07:55:25;;;;;;;7.03;5.05;;;;;;;21.48;23.54;96209.19;5044597;28;20048;-56
2021/04/19 07:57:50;;;;;;;7.20;6.13;;;;;;;21.42;23.64;96209.28;5046164;28;20500;-56
2021/04/19 08:00:32;;;;;;;9.23;7.88;;;;;;;21.38;23.76;96219.09;5028989;28;20148;-56
2021/04/19 08:03:01;;;;;;;15.18;8.27;;;;;;;21.36;23.83;96220.50;5045393;28;20132;-56
2021/04/19 08:05:39;;;;;;;7.53;6.47;;;;;;;21.34;24.06;96209.09;5045501;28;20513;-57
2021/04/19 08:08:05;;;;;;;9.60;6.18;;;;;;;21.41;24.22;96217.69;5027683;28;20072;-56
2021/04/19 08:10:32;;;;;;;7.65;6.10;;;;;;;21.47;24.34;96211.09;5022376;28;20176;-56
2021/04/19 08:13:02;;;;;;;9.02;6.72;;;;;;;21.53;24.05;96217.31;5025449;28;20424;-56
2021/04/19 08:15:28;;;;;;;12.70;7.03;;;;;;;21.46;24.24;96217.69;5026189;28;20046;-57
2021/04/19 08:18:07;;;;;;;11.40;8.35;;;;;;;21.34;24.21;96215.34;5039518;28;20080;-60
2021/04/19 08:20:33;;;;;;;25.77;13.65;;;;;;;21.28;24.64;96211.06;5029392;28;20411;-59
2021/04/19 08:23:10;;;;;;;19.60;12.00;;;;;;;21.25;24.60;96219.84;5023314;28;20049;-57
2021/04/19 08:25:43;;;;;;;20.20;11.65;;;;;;;21.22;24.75;96214.94;5042093;28;20044;-58
2021/04/19 08:28:14;;;;;;;17.88;11.00;;;;;;;21.19;24.56;96215.53;5041273;28;20462;-57
2021/04/19 08:30:40;;;;;;;17.15;10.15;;;;;;;21.17;24.87;96215.84;5042104;28;20045;-57
2021/04/19 08:33:06;;;;;;;24.23;10.57;;;;;;;21.14;24.93;96224.56;5042293;28;20057;-61
2021/04/19 08:35:32;;;;;;;12.75;8.70;;;;;;;21.13;24.83;96216.72;5043083;28;20045;-58
2021/04/19 08:38:00;;;;;;;16.75;9.65;;;;;;;21.08;25.01;96225.72;5044392;28;20154;-57
2021/04/19 08:40:29;;;;;;;18.90;8.80;;;;;;;21.05;25.28;96226.31;5042992;28;20057;-58
2021/04/19 08:42:55;;;;;;;15.85;7.95;;;;;;;21.02;25.45;96222.28;5044530;28;20060;-58
2021/04/19 08:45:21;;;;;;;12.45;8.50;;;;;;;21.02;25.45;96229.63;5042990;28;20053;-58
2021/04/19 08:47:47;;;;;;;13.25;8.23;;;;;;;20.99;25.62;96222.03;5044362;28;20045;-58
2021/04/19 08:50:18;;;;;;;15.38;8.40;;;;;;;20.98;25.46;96221.25;5025887;28;20869;-58
2021/04/19 08:52:45;;;;;;;11.30;7.60;;;;;;;20.99;25.57;96222.03;5039539;28;20049;-57
2021/04/19 08:55:13;;;;;;;13.30;8.05;;;;;;;20.96;25.75;96217.19;5041657;28;20044;-57
2021/04/19 08:57:42;;;;;;;15.90;8.27;;;;;;;20.98;25.45;96218.50;5042194;28;20064;-57
2021/04/19 09:00:08;;;;;;;10.55;7.80;;;;;;;20.98;25.51;96221.25;5057316;28;20091;-58
2021/04/19 09:02:34;;;;;;;12.57;8.18;;;;;;;21.00;25.59;96223.69;5032186;28;20044;-58
2021/04/19 09:05:13;;;;;;;12.13;7.65;;;;;;;21.00;25.39;96218.22;5039469;28;20072;-57
2021/04/19 09:07:41;;;;;;;11.90;7.65;;;;;;;21.02;25.64;96219.56;5041347;28;20809;-58
2021/04/19 09:10:10;;;;;;;12.70;7.82;;;;;;;21.06;25.45;96222.50;5039644;28;20064;-58
2021/04/19 09:12:36;;;;;;;30.35;20.92;;;;;;;21.09;25.44;96215.66;5039587;28;20055;-58
2021/04/19 09:15:08;;;;;;;125.22;96.93;;;;;;;21.11;25.45;96219.72;5041775;28;20076;-59
2021/04/19 09:17:34;;;;;;;122.97;96.68;;;;;;;21.13;25.50;96228.41;5040937;28;20091;-59
2021/04/19 09:20:00;;;;;;;85.80;66.60;;;;;;;21.16;25.51;96219.63;5039823;28;20928;-59
2021/04/19 09:22:26;;;;;;;64.40;48.20;;;;;;;21.18;25.43;96222.88;5039594;28;20528;-59
2021/04/19 09:25:07;;;;;;;52.55;39.53;;;;;;;21.20;25.63;96217.97;5040443;28;20049;-60
2021/04/19 09:27:47;;;;;;;44.20;33.53;;;;;;;21.23;25.79;96214.66;5036379;28;20157;-58
2021/04/19 09:30:22;;;;;;;38.47;30.08;;;;;;;21.28;26.13;96218.44;5041441;28;20139;-58
2021/04/19 09:33:03;;;;;;;39.20;29.48;;;;;;;21.30;26.33;96214.31;5041626;28;20056;-58
2021/04/19 09:35:41;;;;;;;33.72;25.42;;;;;;;21.32;26.23;96214.03;5041687;28;20052;-58
2021/04/19 09:38:10;;;;;;;32.45;24.80;;;;;;;21.35;26.38;96218.88;5043010;28;20056;-58
2021/04/19 09:40:52;;;;;;;27.98;22.33;;;;;;;21.37;26.42;96216.66;5042137;28;20183;-58
2021/04/19 09:43:40;;;;;;;26.67;20.75;;;;;;;21.41;26.16;96220.44;5042206;28;21058;-57
2021/04/19 09:46:07;;;;;;;25.25;19.70;;;;;;;21.46;26.11;96225.84;5039504;28;20056;-58
2021/04/19 09:48:33;;;;;;;23.73;18.33;;;;;;;21.50;26.15;96231.50;5042636;28;20120;-59
2021/04/19 09:51:05;;;;;;;21.83;16.50;;;;;;;21.55;25.91;96229.53;5044191;28;20060;-59
2021/04/19 09:53:30;;;;;;;18.63;15.18;;;;;;;21.59;25.81;96232.50;5035457;28;20041;-59
2021/04/19 09:55:57;;;;;;;16.80;14.15;;;;;;;21.62;25.69;96229.97;5023665;28;20514;-59
2021/04/19 09:58:23;;;;;;;17.75;13.98;;;;;;;21.64;25.58;96226.94;5038478;28;20080;-60
2021/04/19 10:00:59;;;;;;;17.35;13.27;;;;;;;21.67;25.54;96223.66;5037566;28;20503;-59
2021/04/19 10:03:25;;;;;;;14.23;12.35;;;;;;;21.72;25.33;96244.56;5023327;28;20726;-60
2021/04/19 10:05:52;;;;;;;16.02;12.77;;;;;;;21.74;25.32;96237.72;5043246;28;20049;-60
2021/04/19 10:08:22;;;;;;;16.38;12.88;;;;;;;21.76;25.20;96230.06;5043097;28;20440;-60
2021/04/19 10:10:52;;;;;;;23.45;13.18;;;;;;;21.77;25.48;96231.69;5039366;28;20053;-60
2021/04/19 10:13:31;;;;;;;18.42;13.35;;;;;;;21.77;25.65;96223.50;5042233;28;20051;-57
2021/04/19 10:16:09;;;;;;;23.33;14.15;;;;;;;21.76;26.27;96219.16;5043045;28;20159;-59
2021/04/19 10:18:36;;;;;;;24.58;14.75;;;;;;;21.81;26.76;96229.16;5042209;28;20049;-59
2021/04/19 10:21:03;;;;;;;33.25;24.92;;;;;;;21.83;27.04;96226.94;5044763;28;20071;-59
2021/04/19 10:23:33;;;;;;;70.22;62.60;;;;;;;21.84;27.24;96223.13;5046250;28;20084;-58
2021/04/19 10:25:59;;;;;;;51.33;45.63;;;;;;;21.86;26.99;96223.66;5046451;28;20412;-58
2021/04/19 10:28:35;;;;;;;40.97;34.70;;;;;;;21.88;27.13;96221.44;5047874;28;20052;-58
2021/04/19 10:31:20;;;;;;;35.63;29.90;;;;;;;21.89;27.15;96222.25;5046429;28;20134;-58
2021/04/19 10:33:51;;;;;;;32.70;25.08;;;;;;;21.91;27.06;96214.56;5046193;28;20063;-59
2021/04/19 10:36:24;;;;;;;29.52;24.02;;;;;;;21.92;27.38;96213.44;5046414;28;20520;-59
2021/04/19 10:38:52;;;;;;;26.58;23.02;;;;;;;21.93;27.54;96213.16;5048369;28;20041;-59
2021/04/19 10:41:38;;;;;;;26.80;21.17;;;;;;;21.94;27.46;96203.06;5047837;28;20561;-58
2021/04/19 10:44:05;;;;;;;21.83;18.70;;;;;;;21.97;27.41;96208.75;5047505;28;20049;-58
2021/04/19 10:46:32;;;;;;;21.02;18.25;;;;;;;21.99;27.28;96203.00;5046794;28;20106;-59
2021/04/19 10:48:59;;;;;;;29.17;22.10;;;;;;;22.01;27.30;96208.97;5046145;28;20065;-59
2021/04/19 10:51:29;;;;;;;61.50;45.63;;;;;;;22.03;27.48;96202.09;5046227;28;20049;-59
2021/04/19 10:53:56;;;;;;;59.88;44.90;;;;;;;22.04;27.28;96195.56;5047608;28;20045;-58
2021/04/19 10:56:25;;;;;;;60.40;45.10;;;;;;;22.08;27.11;96203.94;5046861;28;20806;-59
2021/04/19 10:59:15;;;;;;;49.00;37.75;;;;;;;22.12;27.19;96202.22;5044421;28;20049;-60
2021/04/19 11:01:42;;;;;;;43.28;33.50;;;;;;;22.16;27.04;96200.53;5055797;28;20065;-58
2021/04/19 11:04:09;;;;;;;40.97;31.20;;;;;;;22.21;27.36;96188.72;5023425;28;20064;-62
2021/04/19 11:06:36;;;;;;;34.65;26.33;;;;;;;22.26;26.94;96192.19;5040946;28;20057;-60
2021/04/19 11:09:06;;;;;;;32.03;24.70;;;;;;;22.32;26.94;96184.75;5041518;28;20037;-58
2021/04/19 11:11:45;;;;;;;30.23;22.63;;;;;;;22.37;26.47;96184.63;5041991;28;20060;-58
2021/04/19 11:14:14;;;;;;;28.00;21.23;;;;;;;22.44;26.42;96186.97;5037371;28;20068;-58
2021/04/19 11:17:05;;;;;;;25.17;19.35;;;;;;;22.48;26.19;96185.25;5040276;28;20110;-58
2021/04/19 11:19:52;;;;;;;23.98;18.02;;;;;;;22.53;26.15;96174.25;5041014;28;20048;-59
2021/04/19 11:22:26;;;;;;;19.55;15.75;;;;;;;22.58;25.87;96187.81;5042557;28;20044;-59
2021/04/19 11:24:53;;;;;;;20.50;15.63;;;;;;;22.62;25.73;96180.63;5041886;28;20554;-59
2021/04/19 11:27:26;;;;;;;16.45;12.88;;;;;;;22.65;25.67;96171.84;5042357;28;20136;-59
2021/04/19 11:29:52;;;;;;;16.02;11.98;;;;;;;22.71;25.54;96175.28;5024090;28;20056;-59
2021/04/19 11:32:34;;;;;;;14.98;12.18;;;;;;;22.72;25.29;96174.19;5042298;28;20057;-58
2021/04/19 11:35:00;;;;;;;12.43;10.45;;;;;;;22.75;24.91;96164.56;5054679;28;20055;-58
2021/04/19 11:37:34;;;;;;;13.70;10.18;;;;;;;22.78;24.85;96172.16;5041870;28;20120;-58